sensor_id;sensor_type;location;lat;lon;timestamp;P1;durP1;ratioP1;P2;durP2;ratioP2
7875;SDS011;69649;53.712;9.680;2023-06-24T00:02:13;8.13;;;5.60;;
7875;SDS011;69649;53.712;9.680;2023-06-24T00:04:39;7.97;;;5.93;;
7875;SDS011;69649;53.712;9.680;2023-06-24T00:07:05;9.03;;;5.97;;
7875;SDS011;69649;53.712;9.680;2023-06-24T00:09:31;8.57;;;5.80;;
7875;SDS011;69649;53.712;9.680;2023-06-24T00:11:58;9.23;;;6.30;;
7875;SDS011;69649;53.712;9.680;2023-06-24T00:14:24;8.70;;;5.93;;
7875;SDS011;69649;53.712;9.680;2023-06-24T00:16:56;8.53;;;6.00;;
7875;SDS011;69649;53.712;9.680;2023-06-24T00:19:20;7.53;;;5.47;;
7875;SDS011;69649;53.712;9.680;2023-06-24T00:21:51;7.80;;;5.73;;
7875;SDS011;69649;53.712;9.680;2023-06-24T00:24:19;10.27;;;5.77;;
7875;SDS011;69649;53.712;9.680;2023-06-24T00:26:48;7.77;;;5.83;;
7875;SDS011;69649;53.712;9.680;2023-06-24T00:29:14;7.17;;;5.60;;
7875;SDS011;69649;53.712;9.680;2023-06-24T00:31:40;5.97;;;5.37;;
7875;SDS011;69649;53.712;9.680;2023-06-24T00:34:06;6.60;;;5.23;;
7875;SDS011;69649;53.712;9.680;2023-06-24T00:36:32;6.70;;;5.47;;
7875;SDS011;69649;53.712;9.680;2023-06-24T00:39:00;9.10;;;5.70;;
7875;SDS011;69649;53.712;9.680;2023-06-24T00:41:29;6.70;;;5.57;;
7875;SDS011;69649;53.712;9.680;2023-06-24T00:43:55;9.70;;;5.93;;
7875;SDS011;69649;53.712;9.680;2023-06-24T00:46:23;6.53;;;5.20;;
7875;SDS011;69649;53.712;9.680;2023-06-24T00:48:51;7.83;;;6.00;;
7875;SDS011;69649;53.712;9.680;2023-06-24T00:51:19;8.03;;;5.80;;
7875;SDS011;69649;53.712;9.680;2023-06-24T00:53:47;9.50;;;5.03;;
7875;SDS011;69649;53.712;9.680;2023-06-24T00:56:16;8.23;;;5.83;;
7875;SDS011;69649;53.712;9.680;2023-06-24T00:58:44;6.87;;;5.50;;
7875;SDS011;69649;53.712;9.680;2023-06-24T01:01:10;7.20;;;5.73;;
7875;SDS011;69649;53.712;9.680;2023-06-24T01:03:37;7.60;;;5.23;;
7875;SDS011;69649;53.712;9.680;2023-06-24T01:06:03;6.70;;;5.20;;
7875;SDS011;69649;53.712;9.680;2023-06-24T01:08:29;7.87;;;5.60;;
7875;SDS011;69649;53.712;9.680;2023-06-24T01:10:55;7.40;;;5.13;;
7875;SDS011;69649;53.712;9.680;2023-06-24T01:13:21;8.37;;;5.27;;
7875;SDS011;69649;53.712;9.680;2023-06-24T01:15:47;8.07;;;6.00;;
7875;SDS011;69649;53.712;9.680;2023-06-24T01:20:52;8.13;;;4.87;;
7875;SDS011;69649;53.712;9.680;2023-06-24T01:26:19;9.63;;;6.30;;
7875;SDS011;69649;53.712;9.680;2023-06-24T01:31:58;10.33;;;5.90;;
7875;SDS011;69649;53.712;9.680;2023-06-24T01:34:32;8.97;;;5.50;;
7875;SDS011;69649;53.712;9.680;2023-06-24T01:37:05;8.30;;;5.83;;
7875;SDS011;69649;53.712;9.680;2023-06-24T01:39:42;7.23;;;5.53;;
7875;SDS011;69649;53.712;9.680;2023-06-24T01:42:16;12.40;;;5.63;;
7875;SDS011;69649;53.712;9.680;2023-06-24T01:44:43;8.83;;;6.17;;
7875;SDS011;69649;53.712;9.680;2023-06-24T01:47:12;6.50;;;5.33;;
7875;SDS011;69649;53.712;9.680;2023-06-24T01:49:42;6.50;;;5.77;;
7875;SDS011;69649;53.712;9.680;2023-06-24T01:52:09;6.97;;;5.53;;
7875;SDS011;69649;53.712;9.680;2023-06-24T01:54:36;8.90;;;6.00;;
7875;SDS011;69649;53.712;9.680;2023-06-24T01:57:06;6.87;;;5.63;;
7875;SDS011;69649;53.712;9.680;2023-06-24T01:59:33;7.20;;;5.43;;
7875;SDS011;69649;53.712;9.680;2023-06-24T02:02:01;7.60;;;5.77;;
7875;SDS011;69649;53.712;9.680;2023-06-24T02:04:29;9.03;;;6.20;;
7875;SDS011;69649;53.712;9.680;2023-06-24T02:06:58;7.07;;;5.43;;
7875;SDS011;69649;53.712;9.680;2023-06-24T02:09:26;8.60;;;5.90;;
7875;SDS011;69649;53.712;9.680;2023-06-24T02:11:56;8.73;;;6.23;;
7875;SDS011;69649;53.712;9.680;2023-06-24T02:14:24;7.10;;;5.37;;
7875;SDS011;69649;53.712;9.680;2023-06-24T02:16:51;6.90;;;5.63;;
7875;SDS011;69649;53.712;9.680;2023-06-24T02:19:26;7.53;;;5.00;;
7875;SDS011;69649;53.712;9.680;2023-06-24T02:21:55;7.57;;;4.93;;
7875;SDS011;69649;53.712;9.680;2023-06-24T02:24:23;7.53;;;5.33;;
7875;SDS011;69649;53.712;9.680;2023-06-24T02:26:49;6.17;;;5.30;;
7875;SDS011;69649;53.712;9.680;2023-06-24T02:29:16;6.47;;;5.37;;
7875;SDS011;69649;53.712;9.680;2023-06-24T02:31:43;7.10;;;5.10;;
7875;SDS011;69649;53.712;9.680;2023-06-24T02:34:09;7.80;;;5.23;;
7875;SDS011;69649;53.712;9.680;2023-06-24T02:36:35;8.20;;;5.00;;
7875;SDS011;69649;53.712;9.680;2023-06-24T02:39:01;8.63;;;5.37;;
7875;SDS011;69649;53.712;9.680;2023-06-24T02:41:26;5.93;;;4.93;;
7875;SDS011;69649;53.712;9.680;2023-06-24T02:43:52;8.40;;;4.90;;
7875;SDS011;69649;53.712;9.680;2023-06-24T02:46:18;8.50;;;5.10;;
7875;SDS011;69649;53.712;9.680;2023-06-24T02:48:46;7.93;;;6.30;;
7875;SDS011;69649;53.712;9.680;2023-06-24T02:51:13;7.83;;;5.93;;
7875;SDS011;69649;53.712;9.680;2023-06-24T02:53:40;7.33;;;5.27;;
7875;SDS011;69649;53.712;9.680;2023-06-24T02:56:06;7.07;;;5.17;;
7875;SDS011;69649;53.712;9.680;2023-06-24T02:58:34;8.73;;;5.10;;
7875;SDS011;69649;53.712;9.680;2023-06-24T03:01:03;6.90;;;4.47;;
7875;SDS011;69649;53.712;9.680;2023-06-24T03:03:32;5.93;;;4.80;;
7875;SDS011;69649;53.712;9.680;2023-06-24T03:05:58;7.33;;;5.13;;
7875;SDS011;69649;53.712;9.680;2023-06-24T03:08:27;7.30;;;5.57;;
7875;SDS011;69649;53.712;9.680;2023-06-24T03:10:56;6.30;;;5.03;;
7875;SDS011;69649;53.712;9.680;2023-06-24T03:13:23;7.10;;;5.63;;
7875;SDS011;69649;53.712;9.680;2023-06-24T03:15:49;6.67;;;5.47;;
7875;SDS011;69649;53.712;9.680;2023-06-24T03:18:16;8.33;;;5.40;;
7875;SDS011;69649;53.712;9.680;2023-06-24T03:20:42;7.77;;;5.10;;
7875;SDS011;69649;53.712;9.680;2023-06-24T03:23:11;8.50;;;5.57;;
7875;SDS011;69649;53.712;9.680;2023-06-24T03:25:37;8.03;;;5.50;;
7875;SDS011;69649;53.712;9.680;2023-06-24T03:28:03;6.00;;;5.10;;
7875;SDS011;69649;53.712;9.680;2023-06-24T03:30:31;9.23;;;5.90;;
7875;SDS011;69649;53.712;9.680;2023-06-24T03:32:56;7.23;;;5.20;;
7875;SDS011;69649;53.712;9.680;2023-06-24T03:35:23;7.87;;;5.80;;
7875;SDS011;69649;53.712;9.680;2023-06-24T03:37:49;7.53;;;5.33;;
7875;SDS011;69649;53.712;9.680;2023-06-24T03:40:15;6.73;;;5.53;;
7875;SDS011;69649;53.712;9.680;2023-06-24T03:42:40;6.73;;;4.63;;
7875;SDS011;69649;53.712;9.680;2023-06-24T03:45:06;7.00;;;5.07;;
7875;SDS011;69649;53.712;9.680;2023-06-24T03:47:32;5.23;;;4.63;;
7875;SDS011;69649;53.712;9.680;2023-06-24T03:49:58;8.63;;;5.20;;
7875;SDS011;69649;53.712;9.680;2023-06-24T03:52:24;6.20;;;4.80;;
7875;SDS011;69649;53.712;9.680;2023-06-24T03:54:51;6.73;;;5.07;;
7875;SDS011;69649;53.712;9.680;2023-06-24T03:57:17;7.30;;;5.43;;
7875;SDS011;69649;53.712;9.680;2023-06-24T03:59:43;6.17;;;4.90;;
7875;SDS011;69649;53.712;9.680;2023-06-24T04:02:09;12.07;;;5.70;;
7875;SDS011;69649;53.712;9.680;2023-06-24T04:04:35;8.07;;;6.17;;
7875;SDS011;69649;53.712;9.680;2023-06-24T04:07:01;8.13;;;5.93;;
7875;SDS011;69649;53.712;9.680;2023-06-24T04:09:29;9.47;;;6.20;;
7875;SDS011;69649;53.712;9.680;2023-06-24T04:11:55;11.07;;;7.50;;
7875;SDS011;69649;53.712;9.680;2023-06-24T04:14:21;14.50;;;7.70;;
7875;SDS011;69649;53.712;9.680;2023-06-24T04:16:48;9.70;;;7.13;;
7875;SDS011;69649;53.712;9.680;2023-06-24T04:19:13;11.63;;;7.83;;
7875;SDS011;69649;53.712;9.680;2023-06-24T04:21:39;12.80;;;8.77;;
7875;SDS011;69649;53.712;9.680;2023-06-24T04:24:05;10.80;;;7.60;;
7875;SDS011;69649;53.712;9.680;2023-06-24T04:26:31;11.23;;;8.00;;
7875;SDS011;69649;53.712;9.680;2023-06-24T04:28:56;12.57;;;8.57;;
7875;SDS011;69649;53.712;9.680;2023-06-24T04:31:23;13.87;;;7.97;;
7875;SDS011;69649;53.712;9.680;2023-06-24T04:33:49;10.20;;;7.57;;
7875;SDS011;69649;53.712;9.680;2023-06-24T04:36:14;12.60;;;7.97;;
7875;SDS011;69649;53.712;9.680;2023-06-24T04:38:41;12.17;;;7.87;;
7875;SDS011;69649;53.712;9.680;2023-06-24T04:41:07;11.30;;;9.00;;
7875;SDS011;69649;53.712;9.680;2023-06-24T04:43:33;12.57;;;7.90;;
7875;SDS011;69649;53.712;9.680;2023-06-24T04:46:01;12.37;;;8.83;;
7875;SDS011;69649;53.712;9.680;2023-06-24T04:48:27;15.97;;;9.30;;
7875;SDS011;69649;53.712;9.680;2023-06-24T04:50:53;14.90;;;9.43;;
7875;SDS011;69649;53.712;9.680;2023-06-24T04:53:20;12.03;;;8.40;;
7875;SDS011;69649;53.712;9.680;2023-06-24T04:55:46;17.40;;;9.53;;
7875;SDS011;69649;53.712;9.680;2023-06-24T04:58:12;13.33;;;8.37;;
7875;SDS011;69649;53.712;9.680;2023-06-24T05:00:38;14.43;;;8.80;;
7875;SDS011;69649;53.712;9.680;2023-06-24T05:03:04;13.60;;;9.57;;
7875;SDS011;69649;53.712;9.680;2023-06-24T05:05:30;13.53;;;8.80;;
7875;SDS011;69649;53.712;9.680;2023-06-24T05:07:56;15.63;;;10.27;;
7875;SDS011;69649;53.712;9.680;2023-06-24T05:10:25;16.93;;;10.03;;
7875;SDS011;69649;53.712;9.680;2023-06-24T05:12:50;15.57;;;9.93;;
7875;SDS011;69649;53.712;9.680;2023-06-24T05:15:16;12.33;;;8.97;;
7875;SDS011;69649;53.712;9.680;2023-06-24T05:17:42;13.40;;;9.10;;
7875;SDS011;69649;53.712;9.680;2023-06-24T05:20:08;12.57;;;9.10;;
7875;SDS011;69649;53.712;9.680;2023-06-24T05:22:34;13.13;;;10.10;;
7875;SDS011;69649;53.712;9.680;2023-06-24T05:25:01;13.67;;;8.77;;
7875;SDS011;69649;53.712;9.680;2023-06-24T05:27:27;14.13;;;9.10;;
7875;SDS011;69649;53.712;9.680;2023-06-24T05:29:52;12.13;;;8.73;;
7875;SDS011;69649;53.712;9.680;2023-06-24T05:32:18;14.20;;;9.00;;
7875;SDS011;69649;53.712;9.680;2023-06-24T05:34:46;11.90;;;9.03;;
7875;SDS011;69649;53.712;9.680;2023-06-24T05:37:12;13.73;;;8.30;;
7875;SDS011;69649;53.712;9.680;2023-06-24T05:39:38;14.63;;;8.90;;
7875;SDS011;69649;53.712;9.680;2023-06-24T05:42:03;15.10;;;8.93;;
7875;SDS011;69649;53.712;9.680;2023-06-24T05:44:29;11.23;;;8.17;;
7875;SDS011;69649;53.712;9.680;2023-06-24T05:46:55;13.30;;;8.27;;
7875;SDS011;69649;53.712;9.680;2023-06-24T05:49:21;12.57;;;7.37;;
7875;SDS011;69649;53.712;9.680;2023-06-24T05:51:47;12.40;;;7.97;;
7875;SDS011;69649;53.712;9.680;2023-06-24T05:54:12;11.17;;;6.83;;
7875;SDS011;69649;53.712;9.680;2023-06-24T05:56:38;9.33;;;6.57;;
7875;SDS011;69649;53.712;9.680;2023-06-24T05:59:04;12.13;;;5.77;;
7875;SDS011;69649;53.712;9.680;2023-06-24T06:01:30;7.93;;;6.40;;
7875;SDS011;69649;53.712;9.680;2023-06-24T06:03:56;8.70;;;5.97;;
7875;SDS011;69649;53.712;9.680;2023-06-24T06:06:21;11.50;;;7.10;;
7875;SDS011;69649;53.712;9.680;2023-06-24T06:08:47;11.07;;;6.87;;
7875;SDS011;69649;53.712;9.680;2023-06-24T06:11:13;9.77;;;6.23;;
7875;SDS011;69649;53.712;9.680;2023-06-24T06:13:39;9.90;;;6.77;;
7875;SDS011;69649;53.712;9.680;2023-06-24T06:16:04;10.27;;;6.47;;
7875;SDS011;69649;53.712;9.680;2023-06-24T06:18:30;14.20;;;7.30;;
7875;SDS011;69649;53.712;9.680;2023-06-24T06:20:56;9.90;;;6.23;;
7875;SDS011;69649;53.712;9.680;2023-06-24T06:23:22;10.70;;;5.57;;
7875;SDS011;69649;53.712;9.680;2023-06-24T06:25:47;9.70;;;5.00;;
7875;SDS011;69649;53.712;9.680;2023-06-24T06:28:13;9.53;;;6.23;;
7875;SDS011;69649;53.712;9.680;2023-06-24T06:30:39;8.17;;;5.63;;
7875;SDS011;69649;53.712;9.680;2023-06-24T06:33:05;9.13;;;5.07;;
7875;SDS011;69649;53.712;9.680;2023-06-24T06:35:30;8.90;;;5.53;;
7875;SDS011;69649;53.712;9.680;2023-06-24T06:37:57;9.03;;;5.70;;
7875;SDS011;69649;53.712;9.680;2023-06-24T06:40:23;7.60;;;5.30;;
7875;SDS011;69649;53.712;9.680;2023-06-24T06:42:49;8.60;;;5.37;;
7875;SDS011;69649;53.712;9.680;2023-06-24T06:45:15;8.70;;;4.40;;
7875;SDS011;69649;53.712;9.680;2023-06-24T06:47:41;12.17;;;5.80;;
7875;SDS011;69649;53.712;9.680;2023-06-24T06:50:07;7.80;;;5.30;;
7875;SDS011;69649;53.712;9.680;2023-06-24T06:52:33;7.77;;;4.87;;
7875;SDS011;69649;53.712;9.680;2023-06-24T06:54:59;5.67;;;4.70;;
7875;SDS011;69649;53.712;9.680;2023-06-24T06:57:25;7.03;;;4.50;;
7875;SDS011;69649;53.712;9.680;2023-06-24T06:59:51;6.90;;;4.80;;
7875;SDS011;69649;53.712;9.680;2023-06-24T07:02:17;6.47;;;4.50;;
7875;SDS011;69649;53.712;9.680;2023-06-24T07:04:43;7.50;;;4.93;;
7875;SDS011;69649;53.712;9.680;2023-06-24T07:07:10;8.17;;;5.23;;
7875;SDS011;69649;53.712;9.680;2023-06-24T07:09:37;9.00;;;4.97;;
7875;SDS011;69649;53.712;9.680;2023-06-24T07:12:03;6.60;;;4.30;;
7875;SDS011;69649;53.712;9.680;2023-06-24T07:14:29;4.63;;;3.73;;
7875;SDS011;69649;53.712;9.680;2023-06-24T07:16:55;5.20;;;3.37;;
7875;SDS011;69649;53.712;9.680;2023-06-24T07:19:21;3.77;;;2.97;;
7875;SDS011;69649;53.712;9.680;2023-06-24T07:21:46;5.57;;;3.70;;
7875;SDS011;69649;53.712;9.680;2023-06-24T07:24:12;5.60;;;3.57;;
7875;SDS011;69649;53.712;9.680;2023-06-24T07:26:38;7.07;;;3.80;;
7875;SDS011;69649;53.712;9.680;2023-06-24T07:29:08;4.87;;;3.47;;
7875;SDS011;69649;53.712;9.680;2023-06-24T07:31:32;5.27;;;2.80;;
7875;SDS011;69649;53.712;9.680;2023-06-24T07:33:59;6.13;;;3.40;;
7875;SDS011;69649;53.712;9.680;2023-06-24T07:36:24;5.23;;;3.93;;
7875;SDS011;69649;53.712;9.680;2023-06-24T07:38:50;5.80;;;3.50;;
7875;SDS011;69649;53.712;9.680;2023-06-24T07:41:16;5.47;;;3.87;;
7875;SDS011;69649;53.712;9.680;2023-06-24T07:43:42;5.63;;;3.90;;
7875;SDS011;69649;53.712;9.680;2023-06-24T07:46:08;5.23;;;3.50;;
7875;SDS011;69649;53.712;9.680;2023-06-24T07:48:34;4.93;;;3.50;;
7875;SDS011;69649;53.712;9.680;2023-06-24T07:50:59;7.80;;;5.83;;
7875;SDS011;69649;53.712;9.680;2023-06-24T07:53:25;4.13;;;3.23;;
7875;SDS011;69649;53.712;9.680;2023-06-24T07:55:51;6.53;;;4.20;;
7875;SDS011;69649;53.712;9.680;2023-06-24T07:58:17;4.50;;;3.20;;
7875;SDS011;69649;53.712;9.680;2023-06-24T08:00:45;9.93;;;5.73;;
7875;SDS011;69649;53.712;9.680;2023-06-24T08:03:12;4.40;;;3.00;;
7875;SDS011;69649;53.712;9.680;2023-06-24T08:05:38;4.70;;;3.57;;
7875;SDS011;69649;53.712;9.680;2023-06-24T08:08:05;4.33;;;3.30;;
7875;SDS011;69649;53.712;9.680;2023-06-24T08:10:31;4.43;;;3.40;;
7875;SDS011;69649;53.712;9.680;2023-06-24T08:12:58;5.63;;;3.40;;
7875;SDS011;69649;53.712;9.680;2023-06-24T08:15:23;7.17;;;3.70;;
7875;SDS011;69649;53.712;9.680;2023-06-24T08:17:53;5.30;;;3.67;;
7875;SDS011;69649;53.712;9.680;2023-06-24T08:20:20;6.53;;;3.60;;
7875;SDS011;69649;53.712;9.680;2023-06-24T08:22:46;5.53;;;3.10;;
7875;SDS011;69649;53.712;9.680;2023-06-24T08:25:12;5.13;;;3.83;;
7875;SDS011;69649;53.712;9.680;2023-06-24T08:27:38;6.80;;;4.00;;
7875;SDS011;69649;53.712;9.680;2023-06-24T08:30:04;4.20;;;3.30;;
7875;SDS011;69649;53.712;9.680;2023-06-24T08:32:31;8.83;;;4.07;;
7875;SDS011;69649;53.712;9.680;2023-06-24T08:34:57;4.57;;;3.00;;
7875;SDS011;69649;53.712;9.680;2023-06-24T08:37:22;6.50;;;4.20;;
7875;SDS011;69649;53.712;9.680;2023-06-24T08:39:48;7.27;;;4.83;;
7875;SDS011;69649;53.712;9.680;2023-06-24T08:42:14;6.60;;;3.47;;
7875;SDS011;69649;53.712;9.680;2023-06-24T08:44:39;7.07;;;3.90;;
7875;SDS011;69649;53.712;9.680;2023-06-24T08:47:06;4.17;;;3.60;;
7875;SDS011;69649;53.712;9.680;2023-06-24T08:49:32;7.03;;;3.20;;
7875;SDS011;69649;53.712;9.680;2023-06-24T08:52:07;6.43;;;3.83;;
7875;SDS011;69649;53.712;9.680;2023-06-24T08:54:36;8.67;;;3.67;;
7875;SDS011;69649;53.712;9.680;2023-06-24T08:57:04;5.03;;;3.37;;
7875;SDS011;69649;53.712;9.680;2023-06-24T08:59:32;4.77;;;3.27;;
7875;SDS011;69649;53.712;9.680;2023-06-24T09:02:00;5.27;;;3.07;;
7875;SDS011;69649;53.712;9.680;2023-06-24T09:04:26;5.37;;;3.40;;
7875;SDS011;69649;53.712;9.680;2023-06-24T09:06:52;4.20;;;3.13;;
7875;SDS011;69649;53.712;9.680;2023-06-24T09:09:18;3.27;;;2.73;;
7875;SDS011;69649;53.712;9.680;2023-06-24T09:11:50;3.60;;;2.80;;
7875;SDS011;69649;53.712;9.680;2023-06-24T09:14:26;3.73;;;3.03;;
7875;SDS011;69649;53.712;9.680;2023-06-24T09:16:58;4.80;;;3.20;;
7875;SDS011;69649;53.712;9.680;2023-06-24T09:19:27;6.10;;;3.33;;
7875;SDS011;69649;53.712;9.680;2023-06-24T09:22:04;4.63;;;3.70;;
7875;SDS011;69649;53.712;9.680;2023-06-24T09:24:35;4.87;;;3.97;;
7875;SDS011;69649;53.712;9.680;2023-06-24T09:27:02;5.30;;;4.00;;
7875;SDS011;69649;53.712;9.680;2023-06-24T09:29:33;4.60;;;3.70;;
7875;SDS011;69649;53.712;9.680;2023-06-24T09:31:59;4.73;;;3.90;;
7875;SDS011;69649;53.712;9.680;2023-06-24T09:34:25;6.07;;;3.73;;
7875;SDS011;69649;53.712;9.680;2023-06-24T09:36:54;5.77;;;4.07;;
7875;SDS011;69649;53.712;9.680;2023-06-24T09:39:21;6.60;;;4.57;;
7875;SDS011;69649;53.712;9.680;2023-06-24T09:41:51;6.33;;;4.90;;
7875;SDS011;69649;53.712;9.680;2023-06-24T09:44:17;9.50;;;4.70;;
7875;SDS011;69649;53.712;9.680;2023-06-24T09:46:45;5.67;;;4.30;;
7875;SDS011;69649;53.712;9.680;2023-06-24T09:49:11;6.17;;;4.73;;
7875;SDS011;69649;53.712;9.680;2023-06-24T09:51:37;8.80;;;4.03;;
7875;SDS011;69649;53.712;9.680;2023-06-24T09:54:05;4.90;;;3.93;;
7875;SDS011;69649;53.712;9.680;2023-06-24T09:56:39;5.43;;;4.47;;
7875;SDS011;69649;53.712;9.680;2023-06-24T09:59:04;6.37;;;3.93;;
7875;SDS011;69649;53.712;9.680;2023-06-24T10:01:31;5.67;;;4.73;;
7875;SDS011;69649;53.712;9.680;2023-06-24T10:03:58;4.80;;;4.07;;
7875;SDS011;69649;53.712;9.680;2023-06-24T10:06:25;7.13;;;4.73;;
7875;SDS011;69649;53.712;9.680;2023-06-24T10:08:51;4.87;;;4.23;;
7875;SDS011;69649;53.712;9.680;2023-06-24T10:11:18;5.63;;;4.03;;
7875;SDS011;69649;53.712;9.680;2023-06-24T10:13:43;8.13;;;4.40;;
7875;SDS011;69649;53.712;9.680;2023-06-24T10:16:09;6.67;;;4.00;;
7875;SDS011;69649;53.712;9.680;2023-06-24T10:18:38;6.23;;;3.87;;
7875;SDS011;69649;53.712;9.680;2023-06-24T10:21:05;6.60;;;4.17;;
7875;SDS011;69649;53.712;9.680;2023-06-24T10:23:54;6.50;;;3.97;;
7875;SDS011;69649;53.712;9.680;2023-06-24T10:26:29;5.90;;;3.87;;
7875;SDS011;69649;53.712;9.680;2023-06-24T10:42:27;19.43;;;6.50;;
7875;SDS011;69649;53.712;9.680;2023-06-24T10:44:59;7.10;;;4.97;;
7875;SDS011;69649;53.712;9.680;2023-06-24T10:47:27;7.27;;;5.07;;
7875;SDS011;69649;53.712;9.680;2023-06-24T10:49:54;9.47;;;4.90;;
7875;SDS011;69649;53.712;9.680;2023-06-24T10:52:21;8.27;;;6.00;;
7875;SDS011;69649;53.712;9.680;2023-06-24T10:54:48;11.23;;;5.97;;
7875;SDS011;69649;53.712;9.680;2023-06-24T10:57:14;7.43;;;4.73;;
7875;SDS011;69649;53.712;9.680;2023-06-24T10:59:46;7.60;;;4.67;;
7875;SDS011;69649;53.712;9.680;2023-06-24T11:02:15;8.43;;;4.47;;
7875;SDS011;69649;53.712;9.680;2023-06-24T11:04:46;7.37;;;5.10;;
7875;SDS011;69649;53.712;9.680;2023-06-24T11:07:24;5.53;;;4.20;;
7875;SDS011;69649;53.712;9.680;2023-06-24T11:12:23;6.93;;;4.83;;
7875;SDS011;69649;53.712;9.680;2023-06-24T11:14:51;5.70;;;4.23;;
7875;SDS011;69649;53.712;9.680;2023-06-24T11:17:19;5.87;;;4.87;;
7875;SDS011;69649;53.712;9.680;2023-06-24T11:19:45;8.20;;;5.30;;
7875;SDS011;69649;53.712;9.680;2023-06-24T11:22:11;5.03;;;4.43;;
7875;SDS011;69649;53.712;9.680;2023-06-24T11:24:37;7.70;;;4.80;;
7875;SDS011;69649;53.712;9.680;2023-06-24T11:27:05;6.07;;;4.40;;
7875;SDS011;69649;53.712;9.680;2023-06-24T11:29:31;6.43;;;4.97;;
7875;SDS011;69649;53.712;9.680;2023-06-24T11:31:58;12.37;;;4.80;;
7875;SDS011;69649;53.712;9.680;2023-06-24T11:34:24;6.27;;;4.40;;
7875;SDS011;69649;53.712;9.680;2023-06-24T11:36:50;6.15;;;3.58;;
7875;SDS011;69649;53.712;9.680;2023-06-24T11:39:23;6.33;;;3.80;;
7875;SDS011;69649;53.712;9.680;2023-06-24T11:41:50;6.63;;;3.93;;
7875;SDS011;69649;53.712;9.680;2023-06-24T11:44:18;5.40;;;3.70;;
7875;SDS011;69649;53.712;9.680;2023-06-24T11:46:44;4.70;;;3.43;;
7875;SDS011;69649;53.712;9.680;2023-06-24T11:49:10;4.67;;;3.47;;
7875;SDS011;69649;53.712;9.680;2023-06-24T11:51:36;5.27;;;4.00;;
7875;SDS011;69649;53.712;9.680;2023-06-24T11:54:03;4.80;;;3.47;;
7875;SDS011;69649;53.712;9.680;2023-06-24T11:56:35;6.87;;;3.83;;
7875;SDS011;69649;53.712;9.680;2023-06-24T11:59:15;4.70;;;3.80;;
7875;SDS011;69649;53.712;9.680;2023-06-24T12:01:45;4.47;;;3.20;;
7875;SDS011;69649;53.712;9.680;2023-06-24T12:04:27;4.83;;;3.30;;
7875;SDS011;69649;53.712;9.680;2023-06-24T12:06:53;5.07;;;3.77;;
7875;SDS011;69649;53.712;9.680;2023-06-24T12:09:19;6.60;;;3.73;;
7875;SDS011;69649;53.712;9.680;2023-06-24T12:11:45;4.33;;;3.30;;
7875;SDS011;69649;53.712;9.680;2023-06-24T12:14:11;4.50;;;3.30;;
7875;SDS011;69649;53.712;9.680;2023-06-24T12:16:37;4.95;;;3.55;;
7875;SDS011;69649;53.712;9.680;2023-06-24T12:19:04;5.17;;;3.10;;
7875;SDS011;69649;53.712;9.680;2023-06-24T12:21:31;4.00;;;3.33;;
7875;SDS011;69649;53.712;9.680;2023-06-24T12:23:57;3.85;;;3.27;;
7875;SDS011;69649;53.712;9.680;2023-06-24T12:26:22;3.85;;;3.10;;
7875;SDS011;69649;53.712;9.680;2023-06-24T12:28:48;4.33;;;3.33;;
7875;SDS011;69649;53.712;9.680;2023-06-24T12:31:14;3.70;;;3.30;;
7875;SDS011;69649;53.712;9.680;2023-06-24T12:33:40;3.83;;;3.30;;
7875;SDS011;69649;53.712;9.680;2023-06-24T12:36:05;3.77;;;2.80;;
7875;SDS011;69649;53.712;9.680;2023-06-24T12:38:31;4.73;;;3.40;;
7875;SDS011;69649;53.712;9.680;2023-06-24T12:40:57;3.83;;;3.02;;
7875;SDS011;69649;53.712;9.680;2023-06-24T12:43:23;5.08;;;3.37;;
7875;SDS011;69649;53.712;9.680;2023-06-24T12:45:49;5.60;;;3.62;;
7875;SDS011;69649;53.712;9.680;2023-06-24T12:48:16;3.37;;;3.00;;
7875;SDS011;69649;53.712;9.680;2023-06-24T12:50:42;3.97;;;2.97;;
7875;SDS011;69649;53.712;9.680;2023-06-24T12:53:08;3.57;;;2.87;;
7875;SDS011;69649;53.712;9.680;2023-06-24T12:55:36;3.17;;;2.50;;
7875;SDS011;69649;53.712;9.680;2023-06-24T12:58:02;5.70;;;3.23;;
7875;SDS011;69649;53.712;9.680;2023-06-24T13:00:27;4.20;;;2.93;;
7875;SDS011;69649;53.712;9.680;2023-06-24T13:02:53;5.33;;;3.07;;
7875;SDS011;69649;53.712;9.680;2023-06-24T13:05:19;4.87;;;2.92;;
7875;SDS011;69649;53.712;9.680;2023-06-24T13:07:45;3.03;;;2.60;;
7875;SDS011;69649;53.712;9.680;2023-06-24T13:10:11;3.33;;;2.73;;
7875;SDS011;69649;53.712;9.680;2023-06-24T13:12:37;4.37;;;3.33;;
7875;SDS011;69649;53.712;9.680;2023-06-24T13:15:03;5.53;;;3.53;;
7875;SDS011;69649;53.712;9.680;2023-06-24T13:17:30;4.10;;;2.83;;
7875;SDS011;69649;53.712;9.680;2023-06-24T13:19:56;4.77;;;3.10;;
7875;SDS011;69649;53.712;9.680;2023-06-24T13:22:22;3.98;;;2.90;;
7875;SDS011;69649;53.712;9.680;2023-06-24T13:24:49;4.47;;;3.00;;
7875;SDS011;69649;53.712;9.680;2023-06-24T13:27:14;3.50;;;2.80;;
7875;SDS011;69649;53.712;9.680;2023-06-24T13:29:42;4.77;;;3.07;;
7875;SDS011;69649;53.712;9.680;2023-06-24T13:32:08;3.63;;;2.63;;
7875;SDS011;69649;53.712;9.680;2023-06-24T13:34:34;4.10;;;2.77;;
7875;SDS011;69649;53.712;9.680;2023-06-24T13:37:00;4.40;;;2.92;;
7875;SDS011;69649;53.712;9.680;2023-06-24T13:39:26;3.55;;;2.87;;
7875;SDS011;69649;53.712;9.680;2023-06-24T13:41:53;4.00;;;2.67;;
7875;SDS011;69649;53.712;9.680;2023-06-24T13:44:19;3.62;;;3.20;;
7875;SDS011;69649;53.712;9.680;2023-06-24T13:46:45;5.87;;;2.65;;
7875;SDS011;69649;53.712;9.680;2023-06-24T13:49:11;3.65;;;2.55;;
7875;SDS011;69649;53.712;9.680;2023-06-24T13:51:37;3.83;;;2.85;;
7875;SDS011;69649;53.712;9.680;2023-06-24T13:54:03;3.95;;;3.17;;
7875;SDS011;69649;53.712;9.680;2023-06-24T13:56:29;4.33;;;3.10;;
7875;SDS011;69649;53.712;9.680;2023-06-24T13:58:55;4.83;;;3.67;;
7875;SDS011;69649;53.712;9.680;2023-06-24T14:01:22;4.90;;;3.12;;
7875;SDS011;69649;53.712;9.680;2023-06-24T14:03:48;3.90;;;2.92;;
7875;SDS011;69649;53.712;9.680;2023-06-24T14:06:16;5.42;;;2.72;;
7875;SDS011;69649;53.712;9.680;2023-06-24T14:08:43;3.92;;;2.55;;
7875;SDS011;69649;53.712;9.680;2023-06-24T14:11:09;3.35;;;2.95;;
7875;SDS011;69649;53.712;9.680;2023-06-24T14:13:35;4.40;;;2.85;;
7875;SDS011;69649;53.712;9.680;2023-06-24T14:16:02;3.42;;;3.12;;
7875;SDS011;69649;53.712;9.680;2023-06-24T14:18:28;3.72;;;2.85;;
7875;SDS011;69649;53.712;9.680;2023-06-24T14:20:56;4.42;;;3.20;;
7875;SDS011;69649;53.712;9.680;2023-06-24T14:23:22;4.72;;;3.00;;
7875;SDS011;69649;53.712;9.680;2023-06-24T14:25:47;5.05;;;3.42;;
7875;SDS011;69649;53.712;9.680;2023-06-24T14:28:13;4.33;;;3.33;;
7875;SDS011;69649;53.712;9.680;2023-06-24T14:30:39;3.70;;;3.25;;
7875;SDS011;69649;53.712;9.680;2023-06-24T14:33:06;4.58;;;3.12;;
7875;SDS011;69649;53.712;9.680;2023-06-24T14:35:32;4.37;;;3.60;;
7875;SDS011;69649;53.712;9.680;2023-06-24T14:37:58;7.67;;;2.98;;
7875;SDS011;69649;53.712;9.680;2023-06-24T14:40:24;5.65;;;3.85;;
7875;SDS011;69649;53.712;9.680;2023-06-24T14:42:50;3.70;;;3.30;;
7875;SDS011;69649;53.712;9.680;2023-06-24T14:45:15;6.50;;;2.95;;
7875;SDS011;69649;53.712;9.680;2023-06-24T14:47:41;4.10;;;3.17;;
7875;SDS011;69649;53.712;9.680;2023-06-24T14:50:07;5.50;;;3.37;;
7875;SDS011;69649;53.712;9.680;2023-06-24T14:52:33;8.13;;;2.95;;
7875;SDS011;69649;53.712;9.680;2023-06-24T14:54:59;3.93;;;3.07;;
7875;SDS011;69649;53.712;9.680;2023-06-24T14:57:24;5.22;;;3.22;;
7875;SDS011;69649;53.712;9.680;2023-06-24T14:59:51;3.95;;;3.50;;
7875;SDS011;69649;53.712;9.680;2023-06-24T15:02:17;3.60;;;2.92;;
7875;SDS011;69649;53.712;9.680;2023-06-24T15:04:43;3.75;;;3.10;;
7875;SDS011;69649;53.712;9.680;2023-06-24T15:07:09;3.40;;;3.10;;
7875;SDS011;69649;53.712;9.680;2023-06-24T15:09:34;4.20;;;2.75;;
7875;SDS011;69649;53.712;9.680;2023-06-24T15:12:01;2.92;;;2.70;;
7875;SDS011;69649;53.712;9.680;2023-06-24T15:14:27;4.40;;;2.83;;
7875;SDS011;69649;53.712;9.680;2023-06-24T15:16:53;4.17;;;3.17;;
7875;SDS011;69649;53.712;9.680;2023-06-24T15:19:20;5.30;;;3.62;;
7875;SDS011;69649;53.712;9.680;2023-06-24T15:21:45;3.85;;;3.45;;
7875;SDS011;69649;53.712;9.680;2023-06-24T15:24:11;4.28;;;3.33;;